Old Milo, Arkansas
Current Conditions -  °F | °C
As of 7:15 AM on Tuesday 21 Oct 2014 (Local Time) from KBQP Reporting Station
Haze Haze  
Wind Chill: 51°   Ceiling: Unl
Heat Index: 51°   Visibility: 2.5mi
Dew Point: 50°   Wind: 0mph
Humidity: 97%   Direction: NA
Pressure: 30.09"   Gusts: NA
Location:  33.1762°N, 91.7595°W
Report Text: KBQP 211215Z AUTO 00000KT 2 1/2SM BR CLR 11/10 A3009 RMK AO2 VIS 1V5 T01050101
Loading
Personal Weather Stations






























Interactive Weather Map
Tropical Storm Tracking
New forecast layout! Learn more

10-Day Weather Forecast

Advertisements
Track Severe Weather on mobile